sensor_id;sensor_type;location;lat;lon;timestamp;temperature;humidity
75899;DHT22;64576;50.460;4.866;2023-12-04T00:00:38;1.21;80.52
75899;DHT22;64576;50.460;4.866;2023-12-04T00:03:04;1.27;79.71
75899;DHT22;64576;50.460;4.866;2023-12-04T00:05:29;1.15;80.75
75899;DHT22;64576;50.460;4.866;2023-12-04T00:07:55;1.21;79.80
75899;DHT22;64576;50.460;4.866;2023-12-04T00:10:20;1.25;79.79
75899;DHT22;64576;50.460;4.866;2023-12-04T00:12:46;1.31;78.86
75899;DHT22;64576;50.460;4.866;2023-12-04T00:15:11;1.24;79.46
75899;DHT22;64576;50.460;4.866;2023-12-04T00:17:37;1.25;79.31
75899;DHT22;64576;50.460;4.866;2023-12-04T00:20:08;1.17;79.68
75899;DHT22;64576;50.460;4.866;2023-12-04T00:22:34;1.21;79.56
75899;DHT22;64576;50.460;4.866;2023-12-04T00:25:00;1.18;79.50
75899;DHT22;64576;50.460;4.866;2023-12-04T00:27:25;1.18;79.79
75899;DHT22;64576;50.460;4.866;2023-12-04T00:29:53;1.13;80.03
75899;DHT22;64576;50.460;4.866;2023-12-04T00:32:19;1.21;79.33
75899;DHT22;64576;50.460;4.866;2023-12-04T00:34:44;1.20;79.35
75899;DHT22;64576;50.460;4.866;2023-12-04T00:37:09;1.14;79.76
75899;DHT22;64576;50.460;4.866;2023-12-04T00:39:35;1.17;79.43
75899;DHT22;64576;50.460;4.866;2023-12-04T00:42:00;1.17;79.35
75899;DHT22;64576;50.460;4.866;2023-12-04T00:44:26;1.14;79.83
75899;DHT22;64576;50.460;4.866;2023-12-04T00:46:51;1.15;79.55
75899;DHT22;64576;50.460;4.866;2023-12-04T00:49:16;1.11;79.86
75899;DHT22;64576;50.460;4.866;2023-12-04T00:51:42;1.11;80.11
75899;DHT22;64576;50.460;4.866;2023-12-04T00:54:08;1.11;79.92
75899;DHT22;64576;50.460;4.866;2023-12-04T00:56:33;1.07;80.33
75899;DHT22;64576;50.460;4.866;2023-12-04T00:58:59;1.01;81.03
75899;DHT22;64576;50.460;4.866;2023-12-04T01:01:24;1.07;80.79
75899;DHT22;64576;50.460;4.866;2023-12-04T01:03:50;1.01;81.18
75899;DHT22;64576;50.460;4.866;2023-12-04T01:06:22;1.04;81.40
75899;DHT22;64576;50.460;4.866;2023-12-04T01:08:48;1.04;81.38
75899;DHT22;64576;50.460;4.866;2023-12-04T01:11:15;1.08;80.82
75899;DHT22;64576;50.460;4.866;2023-12-04T01:13:40;1.17;80.55
75899;DHT22;64576;50.460;4.866;2023-12-04T01:16:06;1.14;80.40
75899;DHT22;64576;50.460;4.866;2023-12-04T01:18:32;1.14;80.42
75899;DHT22;64576;50.460;4.866;2023-12-04T01:20:57;1.17;80.42
75899;DHT22;64576;50.460;4.866;2023-12-04T01:23:24;1.09;81.01
75899;DHT22;64576;50.460;4.866;2023-12-04T01:25:50;1.05;81.66
75899;DHT22;64576;50.460;4.866;2023-12-04T01:28:15;1.13;81.33
75899;DHT22;64576;50.460;4.866;2023-12-04T01:30:40;1.14;80.58
75899;DHT22;64576;50.460;4.866;2023-12-04T01:33:07;1.13;80.42
75899;DHT22;64576;50.460;4.866;2023-12-04T01:35:33;1.09;81.31
75899;DHT22;64576;50.460;4.866;2023-12-04T01:37:58;1.15;80.77
75899;DHT22;64576;50.460;4.866;2023-12-04T01:40:24;1.11;80.97
75899;DHT22;64576;50.460;4.866;2023-12-04T01:42:49;1.23;80.39
75899;DHT22;64576;50.460;4.866;2023-12-04T01:45:15;1.13;81.17
75899;DHT22;64576;50.460;4.866;2023-12-04T01:47:41;1.17;80.76
75899;DHT22;64576;50.460;4.866;2023-12-04T01:50:07;1.18;80.53
75899;DHT22;64576;50.460;4.866;2023-12-04T01:52:33;1.20;80.33
75899;DHT22;64576;50.460;4.866;2023-12-04T01:54:58;1.20;80.62
75899;DHT22;64576;50.460;4.866;2023-12-04T01:57:24;1.18;80.32
75899;DHT22;64576;50.460;4.866;2023-12-04T01:59:49;1.24;80.10
75899;DHT22;64576;50.460;4.866;2023-12-04T02:02:15;1.23;80.35
75899;DHT22;64576;50.460;4.866;2023-12-04T02:04:41;1.24;80.44
75899;DHT22;64576;50.460;4.866;2023-12-04T02:07:06;1.24;80.62
75899;DHT22;64576;50.460;4.866;2023-12-04T02:09:34;1.24;80.08
75899;DHT22;64576;50.460;4.866;2023-12-04T02:11:59;1.24;79.88
75899;DHT22;64576;50.460;4.866;2023-12-04T02:14:25;1.28;80.14
75899;DHT22;64576;50.460;4.866;2023-12-04T02:16:52;1.27;79.90
75899;DHT22;64576;50.460;4.866;2023-12-04T02:19:19;1.27;79.99
75899;DHT22;64576;50.460;4.866;2023-12-04T02:21:45;1.27;79.88
75899;DHT22;64576;50.460;4.866;2023-12-04T02:24:11;1.31;79.58
75899;DHT22;64576;50.460;4.866;2023-12-04T02:26:47;1.27;80.34
75899;DHT22;64576;50.460;4.866;2023-12-04T02:29:23;1.28;80.43
75899;DHT22;64576;50.460;4.866;2023-12-04T02:31:51;1.28;79.60
75899;DHT22;64576;50.460;4.866;2023-12-04T02:34:18;1.23;80.31
75899;DHT22;64576;50.460;4.866;2023-12-04T02:36:45;1.27;79.60
75899;DHT22;64576;50.460;4.866;2023-12-04T02:39:12;1.32;79.06
75899;DHT22;64576;50.460;4.866;2023-12-04T02:41:37;1.24;79.72
75899;DHT22;64576;50.460;4.866;2023-12-04T02:44:03;1.25;79.62
75899;DHT22;64576;50.460;4.866;2023-12-04T02:46:29;1.34;78.73
75899;DHT22;64576;50.460;4.866;2023-12-04T02:48:54;1.32;79.05
75899;DHT22;64576;50.460;4.866;2023-12-04T02:51:19;1.27;79.45
75899;DHT22;64576;50.460;4.866;2023-12-04T02:53:45;1.25;79.40
75899;DHT22;64576;50.460;4.866;2023-12-04T02:56:10;1.28;79.04
75899;DHT22;64576;50.460;4.866;2023-12-04T02:58:36;1.28;79.31
75899;DHT22;64576;50.460;4.866;2023-12-04T03:01:01;1.28;79.41
75899;DHT22;64576;50.460;4.866;2023-12-04T03:03:27;1.31;79.04
75899;DHT22;64576;50.460;4.866;2023-12-04T03:05:52;1.27;79.12
75899;DHT22;64576;50.460;4.866;2023-12-04T03:08:17;1.31;79.29
75899;DHT22;64576;50.460;4.866;2023-12-04T03:10:43;1.31;78.79
75899;DHT22;64576;50.460;4.866;2023-12-04T03:13:08;1.34;78.52
75899;DHT22;64576;50.460;4.866;2023-12-04T03:15:34;1.38;78.48
75899;DHT22;64576;50.460;4.866;2023-12-04T03:18:00;1.38;77.98
75899;DHT22;64576;50.460;4.866;2023-12-04T03:20:26;1.45;77.11
75899;DHT22;64576;50.460;4.866;2023-12-04T03:22:51;1.41;77.93
75899;DHT22;64576;50.460;4.866;2023-12-04T03:25:16;1.39;77.76
75899;DHT22;64576;50.460;4.866;2023-12-04T03:27:43;1.49;76.93
75899;DHT22;64576;50.460;4.866;2023-12-04T03:30:09;1.48;76.53
75899;DHT22;64576;50.460;4.866;2023-12-04T03:32:34;1.42;77.84
75899;DHT22;64576;50.460;4.866;2023-12-04T03:35:00;1.41;77.54
75899;DHT22;64576;50.460;4.866;2023-12-04T03:37:26;1.49;76.48
75899;DHT22;64576;50.460;4.866;2023-12-04T03:39:51;1.48;76.53
75899;DHT22;64576;50.460;4.866;2023-12-04T03:42:17;1.62;75.10
75899;DHT22;64576;50.460;4.866;2023-12-04T03:44:42;1.55;75.81
75899;DHT22;64576;50.460;4.866;2023-12-04T03:47:08;1.53;76.22
75899;DHT22;64576;50.460;4.866;2023-12-04T03:49:33;1.52;76.29
75899;DHT22;64576;50.460;4.866;2023-12-04T03:51:58;1.53;76.29
75899;DHT22;64576;50.460;4.866;2023-12-04T03:54:24;1.58;75.65
75899;DHT22;64576;50.460;4.866;2023-12-04T03:56:49;1.59;75.54
75899;DHT22;64576;50.460;4.866;2023-12-04T03:59:15;1.59;75.25
75899;DHT22;64576;50.460;4.866;2023-12-04T04:01:40;1.64;74.75
75899;DHT22;64576;50.460;4.866;2023-12-04T04:04:05;1.70;74.54
75899;DHT22;64576;50.460;4.866;2023-12-04T04:06:31;1.72;74.61
75899;DHT22;64576;50.460;4.866;2023-12-04T04:08:56;1.79;73.71
75899;DHT22;64576;50.460;4.866;2023-12-04T04:11:21;1.87;73.20
75899;DHT22;64576;50.460;4.866;2023-12-04T04:13:47;1.81;73.29
75899;DHT22;64576;50.460;4.866;2023-12-04T04:16:14;1.79;73.73
75899;DHT22;64576;50.460;4.866;2023-12-04T04:18:41;1.76;73.77
75899;DHT22;64576;50.460;4.866;2023-12-04T04:21:06;1.73;73.71
75899;DHT22;64576;50.460;4.866;2023-12-04T04:23:32;1.72;74.25
75899;DHT22;64576;50.460;4.866;2023-12-04T04:25:57;1.63;74.49
75899;DHT22;64576;50.460;4.866;2023-12-04T04:28:23;1.67;74.44
75899;DHT22;64576;50.460;4.866;2023-12-04T04:30:48;1.69;74.43
75899;DHT22;64576;50.460;4.866;2023-12-04T04:33:14;1.64;74.94
75899;DHT22;64576;50.460;4.866;2023-12-04T04:35:39;1.60;75.27
75899;DHT22;64576;50.460;4.866;2023-12-04T04:38:05;1.62;74.70
75899;DHT22;64576;50.460;4.866;2023-12-04T04:40:30;1.72;74.00
75899;DHT22;64576;50.460;4.866;2023-12-04T04:42:55;1.66;74.12
75899;DHT22;64576;50.460;4.866;2023-12-04T04:45:21;1.64;74.36
75899;DHT22;64576;50.460;4.866;2023-12-04T04:47:46;1.64;74.31
75899;DHT22;64576;50.460;4.866;2023-12-04T04:50:12;1.56;75.44
75899;DHT22;64576;50.460;4.866;2023-12-04T04:52:37;1.58;75.34
75899;DHT22;64576;50.460;4.866;2023-12-04T04:55:05;1.58;75.07
75899;DHT22;64576;50.460;4.866;2023-12-04T04:57:30;1.63;74.54
75899;DHT22;64576;50.460;4.866;2023-12-04T04:59:55;1.55;75.57
75899;DHT22;64576;50.460;4.866;2023-12-04T05:02:21;1.55;75.44
75899;DHT22;64576;50.460;4.866;2023-12-04T05:04:48;1.64;74.49
75899;DHT22;64576;50.460;4.866;2023-12-04T05:07:13;1.64;75.12
75899;DHT22;64576;50.460;4.866;2023-12-04T05:09:38;1.70;74.77
75899;DHT22;64576;50.460;4.866;2023-12-04T05:12:04;1.67;74.47
75899;DHT22;64576;50.460;4.866;2023-12-04T05:14:29;1.67;74.62
75899;DHT22;64576;50.460;4.866;2023-12-04T05:16:55;1.69;74.72
75899;DHT22;64576;50.460;4.866;2023-12-04T05:19:20;1.72;74.40
75899;DHT22;64576;50.460;4.866;2023-12-04T05:21:46;1.79;73.83
75899;DHT22;64576;50.460;4.866;2023-12-04T05:24:11;1.84;73.47
75899;DHT22;64576;50.460;4.866;2023-12-04T05:26:36;1.79;73.90
75899;DHT22;64576;50.460;4.866;2023-12-04T05:29:02;1.86;73.48
75899;DHT22;64576;50.460;4.866;2023-12-04T05:31:28;1.77;74.70
75899;DHT22;64576;50.460;4.866;2023-12-04T05:33:53;1.83;74.32
75899;DHT22;64576;50.460;4.866;2023-12-04T05:36:18;1.79;74.70
75899;DHT22;64576;50.460;4.866;2023-12-04T05:38:44;1.77;74.98
75899;DHT22;64576;50.460;4.866;2023-12-04T05:41:09;1.74;75.18
75899;DHT22;64576;50.460;4.866;2023-12-04T05:43:35;1.76;75.04
75899;DHT22;64576;50.460;4.866;2023-12-04T05:46:00;1.70;75.61
75899;DHT22;64576;50.460;4.866;2023-12-04T05:48:25;1.77;75.74
75899;DHT22;64576;50.460;4.866;2023-12-04T05:50:51;1.76;75.98
75899;DHT22;64576;50.460;4.866;2023-12-04T05:53:16;1.81;75.63
75899;DHT22;64576;50.460;4.866;2023-12-04T05:55:42;1.86;75.87
75899;DHT22;64576;50.460;4.866;2023-12-04T05:58:07;1.89;75.78
75899;DHT22;64576;50.460;4.866;2023-12-04T06:00:32;1.94;75.78
75899;DHT22;64576;50.460;4.866;2023-12-04T06:02:58;1.86;76.77
75899;DHT22;64576;50.460;4.866;2023-12-04T06:05:23;1.93;76.49
75899;DHT22;64576;50.460;4.866;2023-12-04T06:07:49;1.93;76.79
75899;DHT22;64576;50.460;4.866;2023-12-04T06:10:14;1.96;76.65
75899;DHT22;64576;50.460;4.866;2023-12-04T06:12:40;1.90;77.48
75899;DHT22;64576;50.460;4.866;2023-12-04T06:15:06;1.97;77.11
75899;DHT22;64576;50.460;4.866;2023-12-04T06:17:31;1.96;77.75
75899;DHT22;64576;50.460;4.866;2023-12-04T06:19:56;1.94;77.76
75899;DHT22;64576;50.460;4.866;2023-12-04T06:22:22;1.96;77.91
75899;DHT22;64576;50.460;4.866;2023-12-04T06:24:48;1.93;78.32
75899;DHT22;64576;50.460;4.866;2023-12-04T06:27:18;1.93;78.13
75899;DHT22;64576;50.460;4.866;2023-12-04T06:29:46;1.91;78.55
75899;DHT22;64576;50.460;4.866;2023-12-04T06:32:12;1.90;78.87
75899;DHT22;64576;50.460;4.866;2023-12-04T06:34:38;1.86;78.67
75899;DHT22;64576;50.460;4.866;2023-12-04T06:37:10;1.90;78.75
75899;DHT22;64576;50.460;4.866;2023-12-04T06:39:37;1.86;78.92
75899;DHT22;64576;50.460;4.866;2023-12-04T06:42:03;1.86;79.10
75899;DHT22;64576;50.460;4.866;2023-12-04T06:44:29;1.84;79.29
75899;DHT22;64576;50.460;4.866;2023-12-04T06:46:55;1.81;79.57
75899;DHT22;64576;50.460;4.866;2023-12-04T06:49:21;1.77;79.60
75899;DHT22;64576;50.460;4.866;2023-12-04T06:51:47;1.79;79.64
75899;DHT22;64576;50.460;4.866;2023-12-04T06:54:12;1.79;79.68
75899;DHT22;64576;50.460;4.866;2023-12-04T06:56:38;1.80;79.30
75899;DHT22;64576;50.460;4.866;2023-12-04T06:59:04;1.81;80.16
75899;DHT22;64576;50.460;4.866;2023-12-04T07:01:30;1.80;79.64
75899;DHT22;64576;50.460;4.866;2023-12-04T07:03:55;1.80;79.13
75899;DHT22;64576;50.460;4.866;2023-12-04T07:06:21;1.72;80.25
75899;DHT22;64576;50.460;4.866;2023-12-04T07:08:46;1.76;79.46
75899;DHT22;64576;50.460;4.866;2023-12-04T07:11:11;1.72;79.56
75899;DHT22;64576;50.460;4.866;2023-12-04T07:13:41;1.80;79.30
75899;DHT22;64576;50.460;4.866;2023-12-04T07:16:07;1.77;79.26
75899;DHT22;64576;50.460;4.866;2023-12-04T07:18:33;1.76;79.12
75899;DHT22;64576;50.460;4.866;2023-12-04T07:20:58;1.79;79.36
75899;DHT22;64576;50.460;4.866;2023-12-04T07:23:23;1.76;79.85
75899;DHT22;64576;50.460;4.866;2023-12-04T07:25:49;1.72;79.65
75899;DHT22;64576;50.460;4.866;2023-12-04T07:28:17;1.77;79.54
75899;DHT22;64576;50.460;4.866;2023-12-04T07:30:42;1.76;79.54
75899;DHT22;64576;50.460;4.866;2023-12-04T07:33:07;1.79;79.51
75899;DHT22;64576;50.460;4.866;2023-12-04T07:35:33;1.81;79.18
75899;DHT22;64576;50.460;4.866;2023-12-04T07:37:59;1.80;78.77
75899;DHT22;64576;50.460;4.866;2023-12-04T07:40:24;1.76;79.87
75899;DHT22;64576;50.460;4.866;2023-12-04T07:42:50;1.74;79.91
75899;DHT22;64576;50.460;4.866;2023-12-04T07:45:17;1.77;79.24
75899;DHT22;64576;50.460;4.866;2023-12-04T07:47:42;1.79;79.50
75899;DHT22;64576;50.460;4.866;2023-12-04T07:50:08;1.77;79.87
75899;DHT22;64576;50.460;4.866;2023-12-04T07:52:33;1.84;79.44
75899;DHT22;64576;50.460;4.866;2023-12-04T07:55:00;1.89;79.05
75899;DHT22;64576;50.460;4.866;2023-12-04T07:57:26;1.90;78.88
75899;DHT22;64576;50.460;4.866;2023-12-04T07:59:51;1.93;78.83
75899;DHT22;64576;50.460;4.866;2023-12-04T08:02:18;1.97;78.83
75899;DHT22;64576;50.460;4.866;2023-12-04T08:04:43;1.96;79.07
75899;DHT22;64576;50.460;4.866;2023-12-04T08:07:09;1.99;79.41
75899;DHT22;64576;50.460;4.866;2023-12-04T08:09:34;1.96;79.58
75899;DHT22;64576;50.460;4.866;2023-12-04T08:11:59;2.03;79.28
75899;DHT22;64576;50.460;4.866;2023-12-04T08:14:25;2.00;79.90
75899;DHT22;64576;50.460;4.866;2023-12-04T08:16:53;2.01;80.03
75899;DHT22;64576;50.460;4.866;2023-12-04T08:19:18;2.00;80.41
75899;DHT22;64576;50.460;4.866;2023-12-04T08:21:44;1.97;80.26
75899;DHT22;64576;50.460;4.866;2023-12-04T08:24:09;2.03;80.91
75899;DHT22;64576;50.460;4.866;2023-12-04T08:26:35;2.06;80.39
75899;DHT22;64576;50.460;4.866;2023-12-04T08:29:01;2.08;80.85
75899;DHT22;64576;50.460;4.866;2023-12-04T08:31:26;2.11;80.84
75899;DHT22;64576;50.460;4.866;2023-12-04T08:33:52;2.14;80.86
75899;DHT22;64576;50.460;4.866;2023-12-04T08:36:17;2.13;81.34
75899;DHT22;64576;50.460;4.866;2023-12-04T08:38:43;2.10;82.06
75899;DHT22;64576;50.460;4.866;2023-12-04T08:41:08;2.11;82.65
75899;DHT22;64576;50.460;4.866;2023-12-04T08:43:33;2.13;82.64
75899;DHT22;64576;50.460;4.866;2023-12-04T08:45:59;2.10;82.96
75899;DHT22;64576;50.460;4.866;2023-12-04T08:48:25;2.10;82.67
75899;DHT22;64576;50.460;4.866;2023-12-04T08:50:51;2.06;83.70
75899;DHT22;64576;50.460;4.866;2023-12-04T08:53:16;2.11;83.48
75899;DHT22;64576;50.460;4.866;2023-12-04T08:55:41;2.10;83.59
75899;DHT22;64576;50.460;4.866;2023-12-04T08:58:07;2.11;83.94
75899;DHT22;64576;50.460;4.866;2023-12-04T09:00:32;2.10;84.54
75899;DHT22;64576;50.460;4.866;2023-12-04T09:02:58;2.11;85.51
75899;DHT22;64576;50.460;4.866;2023-12-04T09:05:23;2.08;85.67
75899;DHT22;64576;50.460;4.866;2023-12-04T09:07:49;2.11;85.54
75899;DHT22;64576;50.460;4.866;2023-12-04T09:10:14;2.11;86.61
75899;DHT22;64576;50.460;4.866;2023-12-04T09:12:40;2.01;87.73
75899;DHT22;64576;50.460;4.866;2023-12-04T09:15:06;1.94;88.12
75899;DHT22;64576;50.460;4.866;2023-12-04T09:17:32;1.73;90.54
75899;DHT22;64576;50.460;4.866;2023-12-04T09:19:57;1.77;90.91
75899;DHT22;64576;50.460;4.866;2023-12-04T09:22:23;1.69;91.32
75899;DHT22;64576;50.460;4.866;2023-12-04T09:24:48;1.59;91.73
75899;DHT22;64576;50.460;4.866;2023-12-04T09:27:15;1.46;93.60
75899;DHT22;64576;50.460;4.866;2023-12-04T09:29:41;1.38;94.78
75899;DHT22;64576;50.460;4.866;2023-12-04T09:32:06;1.31;95.44
75899;DHT22;64576;50.460;4.866;2023-12-04T09:34:32;1.23;97.37
75899;DHT22;64576;50.460;4.866;2023-12-04T09:36:57;1.15;98.10
75899;DHT22;64576;50.460;4.866;2023-12-04T09:39:23;1.13;98.87
75899;DHT22;64576;50.460;4.866;2023-12-04T09:41:49;1.17;99.15
75899;DHT22;64576;50.460;4.866;2023-12-04T09:44:14;1.20;99.21
75899;DHT22;64576;50.460;4.866;2023-12-04T09:46:44;1.24;99.03
75899;DHT22;64576;50.460;4.866;2023-12-04T09:49:10;1.27;99.13
75899;DHT22;64576;50.460;4.866;2023-12-04T09:51:37;1.28;99.63
75899;DHT22;64576;50.460;4.866;2023-12-04T09:54:03;1.31;99.61
75899;DHT22;64576;50.460;4.866;2023-12-04T09:56:30;1.35;99.88
75899;DHT22;64576;50.460;4.866;2023-12-04T09:58:58;1.35;99.71
75899;DHT22;64576;50.460;4.866;2023-12-04T10:01:30;1.35;99.92
75899;DHT22;64576;50.460;4.866;2023-12-04T10:03:59;1.38;99.99
75899;DHT22;64576;50.460;4.866;2023-12-04T10:06:28;1.43;99.99
75899;DHT22;64576;50.460;4.866;2023-12-04T10:08:55;1.39;99.99
75899;DHT22;64576;50.460;4.866;2023-12-04T10:11:23;1.45;99.99
75899;DHT22;64576;50.460;4.866;2023-12-04T10:13:50;1.46;99.99
75899;DHT22;64576;50.460;4.866;2023-12-04T10:16:31;1.42;99.99
75899;DHT22;64576;50.460;4.866;2023-12-04T10:18:57;1.52;99.99
75899;DHT22;64576;50.460;4.866;2023-12-04T10:21:22;1.56;99.81
75899;DHT22;64576;50.460;4.866;2023-12-04T10:23:48;1.55;99.69
75899;DHT22;64576;50.460;4.866;2023-12-04T10:26:16;1.62;99.68
75899;DHT22;64576;50.460;4.866;2023-12-04T10:28:59;1.72;98.86
75899;DHT22;64576;50.460;4.866;2023-12-04T10:31:25;1.81;98.67
75899;DHT22;64576;50.460;4.866;2023-12-04T10:33:50;1.93;98.73
75899;DHT22;64576;50.460;4.866;2023-12-04T10:36:16;2.01;97.66
75899;DHT22;64576;50.460;4.866;2023-12-04T10:38:43;2.21;97.76
75899;DHT22;64576;50.460;4.866;2023-12-04T10:41:12;2.25;97.26
75899;DHT22;64576;50.460;4.866;2023-12-04T10:43:46;2.10;97.08
75899;DHT22;64576;50.460;4.866;2023-12-04T10:46:12;2.22;97.70
75899;DHT22;64576;50.460;4.866;2023-12-04T10:48:39;2.15;97.42
75899;DHT22;64576;50.460;4.866;2023-12-04T10:51:05;2.15;97.00
75899;DHT22;64576;50.460;4.866;2023-12-04T10:53:30;2.15;97.18
75899;DHT22;64576;50.460;4.866;2023-12-04T10:55:56;2.10;97.72
75899;DHT22;64576;50.460;4.866;2023-12-04T10:58:26;2.15;98.25
75899;DHT22;64576;50.460;4.866;2023-12-04T11:00:53;2.20;97.70
75899;DHT22;64576;50.460;4.866;2023-12-04T11:03:34;2.25;97.25
75899;DHT22;64576;50.460;4.866;2023-12-04T11:06:02;2.31;97.12
75899;DHT22;64576;50.460;4.866;2023-12-04T11:08:33;2.50;96.69
75899;DHT22;64576;50.460;4.866;2023-12-04T11:11:10;2.52;96.35
75899;DHT22;64576;50.460;4.866;2023-12-04T11:13:41;2.59;96.56
75899;DHT22;64576;50.460;4.866;2023-12-04T11:16:15;2.69;96.10
75899;DHT22;64576;50.460;4.866;2023-12-04T11:18:44;2.63;95.79
75899;DHT22;64576;50.460;4.866;2023-12-04T11:21:13;2.59;95.87
75899;DHT22;64576;50.460;4.866;2023-12-04T11:23:40;2.62;96.03
75899;DHT22;64576;50.460;4.866;2023-12-04T11:26:07;2.73;96.00
75899;DHT22;64576;50.460;4.866;2023-12-04T11:28:34;2.87;95.36
75899;DHT22;64576;50.460;4.866;2023-12-04T11:31:03;2.82;95.62
75899;DHT22;64576;50.460;4.866;2023-12-04T11:33:35;2.86;95.38
75899;DHT22;64576;50.460;4.866;2023-12-04T11:36:19;2.77;95.96
75899;DHT22;64576;50.460;4.866;2023-12-04T11:38:46;2.76;95.80
75899;DHT22;64576;50.460;4.866;2023-12-04T11:41:16;2.82;96.05
75899;DHT22;64576;50.460;4.866;2023-12-04T11:43:42;2.72;95.98
75899;DHT22;64576;50.460;4.866;2023-12-04T11:46:09;2.75;96.49
75899;DHT22;64576;50.460;4.866;2023-12-04T11:48:36;2.71;96.73
75899;DHT22;64576;50.460;4.866;2023-12-04T11:51:02;2.66;96.56
75899;DHT22;64576;50.460;4.866;2023-12-04T11:53:27;2.72;96.81
75899;DHT22;64576;50.460;4.866;2023-12-04T11:55:55;2.73;96.75
75899;DHT22;64576;50.460;4.866;2023-12-04T11:58:22;2.76;97.02
75899;DHT22;64576;50.460;4.866;2023-12-04T12:00:48;2.75;96.82
75899;DHT22;64576;50.460;4.866;2023-12-04T12:03:15;2.76;97.01
75899;DHT22;64576;50.460;4.866;2023-12-04T12:05:40;2.86;97.31
75899;DHT22;64576;50.460;4.866;2023-12-04T12:08:07;2.86;97.29
75899;DHT22;64576;50.460;4.866;2023-12-04T12:10:34;2.82;97.38
75899;DHT22;64576;50.460;4.866;2023-12-04T12:13:00;2.80;97.68
75899;DHT22;64576;50.460;4.866;2023-12-04T12:15:27;2.83;97.93
75899;DHT22;64576;50.460;4.866;2023-12-04T12:17:53;2.83;98.03
75899;DHT22;64576;50.460;4.866;2023-12-04T12:20:18;2.83;98.57
75899;DHT22;64576;50.460;4.866;2023-12-04T12:22:47;2.80;99.99
75899;DHT22;64576;50.460;4.866;2023-12-04T12:25:13;2.76;99.99
75899;DHT22;64576;50.460;4.866;2023-12-04T12:27:39;2.71;99.99
75899;DHT22;64576;50.460;4.866;2023-12-04T12:30:06;2.72;99.99
75899;DHT22;64576;50.460;4.866;2023-12-04T12:32:35;2.73;99.99
75899;DHT22;64576;50.460;4.866;2023-12-04T12:35:04;2.80;99.99
75899;DHT22;64576;50.460;4.866;2023-12-04T12:37:31;2.82;99.99
75899;DHT22;64576;50.460;4.866;2023-12-04T12:39:57;2.90;99.99
75899;DHT22;64576;50.460;4.866;2023-12-04T12:42:27;2.93;99.99
75899;DHT22;64576;50.460;4.866;2023-12-04T12:44:53;3.00;99.99
75899;DHT22;64576;50.460;4.866;2023-12-04T12:47:20;3.05;99.99
75899;DHT22;64576;50.460;4.866;2023-12-04T12:49:46;3.07;99.99
75899;DHT22;64576;50.460;4.866;2023-12-04T12:52:12;3.14;99.99
75899;DHT22;64576;50.460;4.866;2023-12-04T12:54:42;3.20;99.99
75899;DHT22;64576;50.460;4.866;2023-12-04T12:57:08;3.25;99.70
75899;DHT22;64576;50.460;4.866;2023-12-04T12:59:34;3.31;99.35
75899;DHT22;64576;50.460;4.866;2023-12-04T13:02:00;3.32;99.99
75899;DHT22;64576;50.460;4.866;2023-12-04T13:04:26;3.20;99.99
75899;DHT22;64576;50.460;4.866;2023-12-04T13:06:58;3.10;99.99
75899;DHT22;64576;50.460;4.866;2023-12-04T13:09:24;2.86;99.99
75899;DHT22;64576;50.460;4.866;2023-12-04T13:11:49;2.82;99.99
75899;DHT22;64576;50.460;4.866;2023-12-04T13:14:16;2.82;99.99
75899;DHT22;64576;50.460;4.866;2023-12-04T13:16:42;2.84;99.99
75899;DHT22;64576;50.460;4.866;2023-12-04T13:19:07;2.84;99.99
75899;DHT22;64576;50.460;4.866;2023-12-04T13:21:33;2.89;99.99
75899;DHT22;64576;50.460;4.866;2023-12-04T13:23:58;2.90;99.99
75899;DHT22;64576;50.460;4.866;2023-12-04T13:26:24;2.92;99.99
75899;DHT22;64576;50.460;4.866;2023-12-04T13:28:52;2.92;99.99
75899;DHT22;64576;50.460;4.866;2023-12-04T13:31:18;2.86;99.99
75899;DHT22;64576;50.460;4.866;2023-12-04T13:33:45;2.92;99.99
75899;DHT22;64576;50.460;4.866;2023-12-04T13:36:12;2.92;99.99
75899;DHT22;64576;50.460;4.866;2023-12-04T13:38:37;2.87;99.99
75899;DHT22;64576;50.460;4.866;2023-12-04T13:41:03;2.90;99.99
75899;DHT22;64576;50.460;4.866;2023-12-04T13:44:04;3.00;99.99
75899;DHT22;64576;50.460;4.866;2023-12-04T13:46:30;3.01;99.99
75899;DHT22;64576;50.460;4.866;2023-12-04T13:48:57;3.00;99.99
75899;DHT22;64576;50.460;4.866;2023-12-04T13:51:22;3.05;99.99
75899;DHT22;64576;50.460;4.866;2023-12-04T13:53:48;3.08;99.99
75899;DHT22;64576;50.460;4.866;2023-12-04T13:56:15;3.12;99.99
75899;DHT22;64576;50.460;4.866;2023-12-04T13:58:49;3.22;99.99
75899;DHT22;64576;50.460;4.866;2023-12-04T14:01:24;3.25;99.99
75899;DHT22;64576;50.460;4.866;2023-12-04T14:03:52;3.24;99.99
75899;DHT22;64576;50.460;4.866;2023-12-04T14:06:18;3.27;99.99
75899;DHT22;64576;50.460;4.866;2023-12-04T14:08:44;3.27;99.99
75899;DHT22;64576;50.460;4.866;2023-12-04T14:11:11;3.28;99.99
75899;DHT22;64576;50.460;4.866;2023-12-04T14:13:37;3.24;99.99
75899;DHT22;64576;50.460;4.866;2023-12-04T14:16:04;3.22;99.99
75899;DHT22;64576;50.460;4.866;2023-12-04T14:18:30;3.21;99.99
75899;DHT22;64576;50.460;4.866;2023-12-04T14:20:58;3.20;99.99
75899;DHT22;64576;50.460;4.866;2023-12-04T14:23:24;3.24;99.99
75899;DHT22;64576;50.460;4.866;2023-12-04T14:25:49;3.32;99.99
75899;DHT22;64576;50.460;4.866;2023-12-04T14:28:15;3.28;99.99
75899;DHT22;64576;50.460;4.866;2023-12-04T14:30:41;3.28;99.99
75899;DHT22;64576;50.460;4.866;2023-12-04T14:33:07;3.30;99.99
75899;DHT22;64576;50.460;4.866;2023-12-04T14:35:34;3.31;99.99
75899;DHT22;64576;50.460;4.866;2023-12-04T14:38:02;3.31;99.99
75899;DHT22;64576;50.460;4.866;2023-12-04T14:40:29;3.28;99.99
75899;DHT22;64576;50.460;4.866;2023-12-04T14:42:57;3.32;99.99
75899;DHT22;64576;50.460;4.866;2023-12-04T14:45:23;3.28;99.99
75899;DHT22;64576;50.460;4.866;2023-12-04T14:47:48;3.31;99.99
75899;DHT22;64576;50.460;4.866;2023-12-04T14:50:16;3.36;99.99
75899;DHT22;64576;50.460;4.866;2023-12-04T14:52:42;3.39;99.99
75899;DHT22;64576;50.460;4.866;2023-12-04T14:55:14;3.41;99.99
75899;DHT22;64576;50.460;4.866;2023-12-04T14:57:53;3.41;99.99
75899;DHT22;64576;50.460;4.866;2023-12-04T15:00:41;3.42;99.99
75899;DHT22;64576;50.460;4.866;2023-12-04T15:03:07;3.43;99.99
75899;DHT22;64576;50.460;4.866;2023-12-04T15:05:44;3.38;99.99
75899;DHT22;64576;50.460;4.866;2023-12-04T15:08:28;3.34;99.99
75899;DHT22;64576;50.460;4.866;2023-12-04T15:10:59;3.34;99.99
75899;DHT22;64576;50.460;4.866;2023-12-04T15:13:57;3.36;99.99
75899;DHT22;64576;50.460;4.866;2023-12-04T15:16:22;3.39;99.99
75899;DHT22;64576;50.460;4.866;2023-12-04T15:18:56;3.39;99.99
75899;DHT22;64576;50.460;4.866;2023-12-04T15:21:41;3.39;99.99
75899;DHT22;64576;50.460;4.866;2023-12-04T15:24:07;3.45;99.99
75899;DHT22;64576;50.460;4.866;2023-12-04T15:26:32;3.42;99.99
75899;DHT22;64576;50.460;4.866;2023-12-04T15:28:58;3.39;99.99
75899;DHT22;64576;50.460;4.866;2023-12-04T15:31:23;3.42;99.99
75899;DHT22;64576;50.460;4.866;2023-12-04T15:33:49;3.43;99.99
75899;DHT22;64576;50.460;4.866;2023-12-04T15:36:14;3.49;99.99
75899;DHT22;64576;50.460;4.866;2023-12-04T15:38:39;3.45;99.99
75899;DHT22;64576;50.460;4.866;2023-12-04T15:41:05;3.48;99.99